Querino, Arizona
Current Conditions -  °F | °C
As of 1:53 AM on Friday 24 Oct 2014 (Local Time) from KRQE Reporting Station
Clear Clear  
Wind Chill: 39°   Ceiling: Unl
Heat Index: 39°   Visibility: 10mi
Dew Point: 27°   Wind: 0mph
Humidity: 62%   Direction: NA
Pressure: 30.36"   Gusts: NA
Location:  35.2918°N, 109.157°W
Report Text: KRQE 240753Z AUTO 00000KT 10SM CLR 04/M03 A3036 RMK AO2 SLP203 T00391028 TSNO
Loading
Personal Weather Stations






























Interactive Weather Map
Tropical Storm Tracking
New forecast layout! Learn more

10-Day Weather Forecast

Advertisements
Track Severe Weather on mobile